sensor_id;sensor_type;location;lat;lon;timestamp;P1;durP1;ratioP1;P2;durP2;ratioP2
8550;SDS011;4313;42.000;21.380;2022-10-16T00:00:47;1080.03;;;976.20;;
8550;SDS011;4313;42.000;21.380;2022-10-16T00:03:15;1085.37;;;983.30;;
8550;SDS011;4313;42.000;21.380;2022-10-16T00:05:42;1095.63;;;989.13;;
8550;SDS011;4313;42.000;21.380;2022-10-16T00:08:11;1090.17;;;982.10;;
8550;SDS011;4313;42.000;21.380;2022-10-16T00:10:38;1099.60;;;991.93;;
8550;SDS011;4313;42.000;21.380;2022-10-16T00:13:06;1104.47;;;994.13;;
8550;SDS011;4313;42.000;21.380;2022-10-16T00:15:35;1105.80;;;999.90;;
8550;SDS011;4313;42.000;21.380;2022-10-16T00:18:04;1056.10;;;959.23;;
8550;SDS011;4313;42.000;21.380;2022-10-16T00:20:33;1060.67;;;963.43;;
8550;SDS011;4313;42.000;21.380;2022-10-16T00:23:02;1081.27;;;978.43;;
8550;SDS011;4313;42.000;21.380;2022-10-16T00:25:30;1082.70;;;976.53;;
8550;SDS011;4313;42.000;21.380;2022-10-16T00:27:59;1130.00;;;999.90;;
8550;SDS011;4313;42.000;21.380;2022-10-16T00:30:26;1107.37;;;996.50;;
8550;SDS011;4313;42.000;21.380;2022-10-16T00:32:55;1133.07;;;999.90;;
8550;SDS011;4313;42.000;21.380;2022-10-16T00:35:22;1118.57;;;999.90;;
8550;SDS011;4313;42.000;21.380;2022-10-16T00:37:49;1123.53;;;999.90;;
8550;SDS011;4313;42.000;21.380;2022-10-16T00:40:17;1078.80;;;972.73;;
8550;SDS011;4313;42.000;21.380;2022-10-16T00:42:44;1103.17;;;993.90;;
8550;SDS011;4313;42.000;21.380;2022-10-16T00:45:11;1107.60;;;996.90;;
8550;SDS011;4313;42.000;21.380;2022-10-16T00:47:39;1112.87;;;998.40;;
8550;SDS011;4313;42.000;21.380;2022-10-16T00:50:09;1105.13;;;995.90;;
8550;SDS011;4313;42.000;21.380;2022-10-16T00:52:41;1091.33;;;985.57;;
8550;SDS011;4313;42.000;21.380;2022-10-16T00:55:11;1094.20;;;988.47;;
8550;SDS011;4313;42.000;21.380;2022-10-16T00:57:38;1060.43;;;961.17;;
8550;SDS011;4313;42.000;21.380;2022-10-16T01:00:07;1013.60;;;918.87;;
8550;SDS011;4313;42.000;21.380;2022-10-16T01:02:36;1023.60;;;934.87;;
8550;SDS011;4313;42.000;21.380;2022-10-16T01:05:03;1015.83;;;922.13;;
8550;SDS011;4313;42.000;21.380;2022-10-16T01:07:36;1026.87;;;934.80;;
8550;SDS011;4313;42.000;21.380;2022-10-16T01:10:26;993.47;;;909.63;;
8550;SDS011;4313;42.000;21.380;2022-10-16T01:13:03;990.87;;;902.73;;
8550;SDS011;4313;42.000;21.380;2022-10-16T01:15:35;1026.50;;;934.20;;
8550;SDS011;4313;42.000;21.380;2022-10-16T01:18:05;1069.23;;;968.57;;
8550;SDS011;4313;42.000;21.380;2022-10-16T01:20:37;1069.87;;;968.93;;
8550;SDS011;4313;42.000;21.380;2022-10-16T01:23:14;1036.40;;;942.80;;
8550;SDS011;4313;42.000;21.380;2022-10-16T01:28:44;1071.13;;;970.83;;
8550;SDS011;4313;42.000;21.380;2022-10-16T01:31:35;990.03;;;905.20;;
8550;SDS011;4313;42.000;21.380;2022-10-16T01:34:05;993.80;;;911.27;;
8550;SDS011;4313;42.000;21.380;2022-10-16T01:36:35;988.43;;;905.33;;
8550;SDS011;4313;42.000;21.380;2022-10-16T01:39:04;998.23;;;911.00;;
8550;SDS011;4313;42.000;21.380;2022-10-16T01:41:36;1016.40;;;927.93;;
8550;SDS011;4313;42.000;21.380;2022-10-16T01:44:07;1056.33;;;961.07;;
8550;SDS011;4313;42.000;21.380;2022-10-16T01:46:38;1083.53;;;981.90;;
8550;SDS011;4313;42.000;21.380;2022-10-16T01:49:07;1048.27;;;951.23;;
8550;SDS011;4313;42.000;21.380;2022-10-16T01:51:35;1076.93;;;976.77;;
8550;SDS011;4313;42.000;21.380;2022-10-16T01:54:05;1062.33;;;965.77;;
8550;SDS011;4313;42.000;21.380;2022-10-16T01:56:33;1122.77;;;999.90;;
8550;SDS011;4313;42.000;21.380;2022-10-16T01:59:02;1121.57;;;999.90;;
8550;SDS011;4313;42.000;21.380;2022-10-16T02:01:33;1131.93;;;999.90;;
8550;SDS011;4313;42.000;21.380;2022-10-16T02:04:03;1110.83;;;999.90;;
8550;SDS011;4313;42.000;21.380;2022-10-16T02:06:35;1125.70;;;999.90;;
8550;SDS011;4313;42.000;21.380;2022-10-16T02:09:02;1122.57;;;999.90;;
8550;SDS011;4313;42.000;21.380;2022-10-16T02:11:30;1140.03;;;999.90;;
8550;SDS011;4313;42.000;21.380;2022-10-16T02:13:58;1124.43;;;999.90;;
8550;SDS011;4313;42.000;21.380;2022-10-16T02:16:34;1147.73;;;999.90;;
8550;SDS011;4313;42.000;21.380;2022-10-16T02:19:03;1111.63;;;999.73;;
8550;SDS011;4313;42.000;21.380;2022-10-16T02:21:32;1128.67;;;999.90;;
8550;SDS011;4313;42.000;21.380;2022-10-16T02:24:05;1104.47;;;998.47;;
8550;SDS011;4313;42.000;21.380;2022-10-16T02:26:37;1080.17;;;977.00;;
8550;SDS011;4313;42.000;21.380;2022-10-16T02:29:08;1092.10;;;986.63;;
8550;SDS011;4313;42.000;21.380;2022-10-16T02:31:59;1091.93;;;985.77;;
8550;SDS011;4313;42.000;21.380;2022-10-16T02:34:27;1112.93;;;999.90;;
8550;SDS011;4313;42.000;21.380;2022-10-16T02:36:57;1105.77;;;995.83;;
8550;SDS011;4313;42.000;21.380;2022-10-16T02:39:27;1140.83;;;999.90;;
8550;SDS011;4313;42.000;21.380;2022-10-16T02:41:54;1169.57;;;999.90;;
8550;SDS011;4313;42.000;21.380;2022-10-16T02:44:21;1132.57;;;999.90;;
8550;SDS011;4313;42.000;21.380;2022-10-16T02:46:48;1158.97;;;999.90;;
8550;SDS011;4313;42.000;21.380;2022-10-16T02:49:17;1126.67;;;999.90;;
8550;SDS011;4313;42.000;21.380;2022-10-16T02:51:44;1138.70;;;999.90;;
8550;SDS011;4313;42.000;21.380;2022-10-16T02:54:11;1121.30;;;999.90;;
8550;SDS011;4313;42.000;21.380;2022-10-16T02:56:38;1126.90;;;999.90;;
8550;SDS011;4313;42.000;21.380;2022-10-16T02:59:05;1113.17;;;999.60;;
8550;SDS011;4313;42.000;21.380;2022-10-16T03:01:32;1115.80;;;999.90;;
8550;SDS011;4313;42.000;21.380;2022-10-16T03:03:59;1138.57;;;999.90;;
8550;SDS011;4313;42.000;21.380;2022-10-16T03:06:28;1141.93;;;999.90;;
8550;SDS011;4313;42.000;21.380;2022-10-16T03:08:55;1135.03;;;999.90;;
8550;SDS011;4313;42.000;21.380;2022-10-16T03:11:22;1127.53;;;999.90;;
8550;SDS011;4313;42.000;21.380;2022-10-16T03:13:49;1149.30;;;999.90;;
8550;SDS011;4313;42.000;21.380;2022-10-16T03:16:16;1118.70;;;999.90;;
8550;SDS011;4313;42.000;21.380;2022-10-16T03:18:43;1109.90;;;998.83;;
8550;SDS011;4313;42.000;21.380;2022-10-16T03:21:14;1135.37;;;999.90;;
8550;SDS011;4313;42.000;21.380;2022-10-16T03:23:43;1134.37;;;999.90;;
8550;SDS011;4313;42.000;21.380;2022-10-16T03:26:10;1106.97;;;997.43;;
8550;SDS011;4313;42.000;21.380;2022-10-16T03:28:37;1081.63;;;981.33;;
8550;SDS011;4313;42.000;21.380;2022-10-16T03:31:04;1088.97;;;986.97;;
8550;SDS011;4313;42.000;21.380;2022-10-16T03:33:31;1113.77;;;999.90;;
8550;SDS011;4313;42.000;21.380;2022-10-16T03:36:17;1124.70;;;999.90;;
8550;SDS011;4313;42.000;21.380;2022-10-16T03:38:45;1140.73;;;999.90;;
8550;SDS011;4313;42.000;21.380;2022-10-16T03:41:12;1155.30;;;999.90;;
8550;SDS011;4313;42.000;21.380;2022-10-16T03:43:40;1161.83;;;999.90;;
8550;SDS011;4313;42.000;21.380;2022-10-16T03:46:07;1169.60;;;999.90;;
8550;SDS011;4313;42.000;21.380;2022-10-16T03:48:34;1133.53;;;999.90;;
8550;SDS011;4313;42.000;21.380;2022-10-16T03:51:01;1151.70;;;999.90;;
8550;SDS011;4313;42.000;21.380;2022-10-16T03:53:28;1149.70;;;999.90;;
8550;SDS011;4313;42.000;21.380;2022-10-16T03:55:57;1150.63;;;999.90;;
8550;SDS011;4313;42.000;21.380;2022-10-16T03:58:24;1117.50;;;999.90;;
8550;SDS011;4313;42.000;21.380;2022-10-16T04:00:51;1148.90;;;999.90;;
8550;SDS011;4313;42.000;21.380;2022-10-16T04:03:18;1137.53;;;999.90;;
8550;SDS011;4313;42.000;21.380;2022-10-16T04:05:46;1130.43;;;999.90;;
8550;SDS011;4313;42.000;21.380;2022-10-16T04:08:13;1118.73;;;999.90;;
8550;SDS011;4313;42.000;21.380;2022-10-16T04:10:41;1093.03;;;993.27;;
8550;SDS011;4313;42.000;21.380;2022-10-16T04:13:10;1085.77;;;986.77;;
8550;SDS011;4313;42.000;21.380;2022-10-16T04:15:37;1097.80;;;997.10;;
8550;SDS011;4313;42.000;21.380;2022-10-16T04:18:04;1043.63;;;954.77;;
8550;SDS011;4313;42.000;21.380;2022-10-16T04:20:32;1045.53;;;957.33;;
8550;SDS011;4313;42.000;21.380;2022-10-16T04:22:59;1045.87;;;956.60;;
8550;SDS011;4313;42.000;21.380;2022-10-16T04:25:26;1052.27;;;957.97;;
8550;SDS011;4313;42.000;21.380;2022-10-16T04:27:54;1093.57;;;992.63;;
8550;SDS011;4313;42.000;21.380;2022-10-16T04:30:22;1100.13;;;996.97;;
8550;SDS011;4313;42.000;21.380;2022-10-16T04:32:50;1103.20;;;996.60;;
8550;SDS011;4313;42.000;21.380;2022-10-16T04:35:17;1132.53;;;999.90;;
8550;SDS011;4313;42.000;21.380;2022-10-16T04:37:45;1124.30;;;999.90;;
8550;SDS011;4313;42.000;21.380;2022-10-16T04:40:12;1121.73;;;999.90;;
8550;SDS011;4313;42.000;21.380;2022-10-16T04:42:39;1138.03;;;999.90;;
8550;SDS011;4313;42.000;21.380;2022-10-16T04:45:07;1141.10;;;999.90;;
8550;SDS011;4313;42.000;21.380;2022-10-16T04:47:36;1119.80;;;999.90;;
8550;SDS011;4313;42.000;21.380;2022-10-16T04:50:04;1145.57;;;999.90;;
8550;SDS011;4313;42.000;21.380;2022-10-16T04:52:31;1128.53;;;999.90;;
8550;SDS011;4313;42.000;21.380;2022-10-16T04:54:58;1118.97;;;999.90;;
8550;SDS011;4313;42.000;21.380;2022-10-16T04:57:28;1127.17;;;999.90;;
8550;SDS011;4313;42.000;21.380;2022-10-16T04:59:55;1131.53;;;999.90;;
8550;SDS011;4313;42.000;21.380;2022-10-16T05:02:22;1113.60;;;999.33;;
8550;SDS011;4313;42.000;21.380;2022-10-16T05:04:51;1164.67;;;999.90;;
8550;SDS011;4313;42.000;21.380;2022-10-16T05:07:18;1121.30;;;999.90;;
8550;SDS011;4313;42.000;21.380;2022-10-16T05:09:45;1143.83;;;999.90;;
8550;SDS011;4313;42.000;21.380;2022-10-16T05:12:12;1109.33;;;999.90;;
8550;SDS011;4313;42.000;21.380;2022-10-16T05:14:39;1114.67;;;999.90;;
8550;SDS011;4313;42.000;21.380;2022-10-16T05:17:06;1068.50;;;962.97;;
8550;SDS011;4313;42.000;21.380;2022-10-16T05:19:34;1041.30;;;941.37;;
8550;SDS011;4313;42.000;21.380;2022-10-16T05:22:02;1041.43;;;945.87;;
8550;SDS011;4313;42.000;21.380;2022-10-16T05:24:29;1047.13;;;945.13;;
8550;SDS011;4313;42.000;21.380;2022-10-16T05:26:56;1080.27;;;972.57;;
8550;SDS011;4313;42.000;21.380;2022-10-16T05:29:23;1082.47;;;978.40;;
8550;SDS011;4313;42.000;21.380;2022-10-16T05:31:52;1091.10;;;984.60;;
8550;SDS011;4313;42.000;21.380;2022-10-16T05:34:19;1121.17;;;999.90;;
8550;SDS011;4313;42.000;21.380;2022-10-16T05:36:46;1131.37;;;999.90;;
8550;SDS011;4313;42.000;21.380;2022-10-16T05:39:15;1129.37;;;999.90;;
8550;SDS011;4313;42.000;21.380;2022-10-16T05:41:42;1144.03;;;999.90;;
8550;SDS011;4313;42.000;21.380;2022-10-16T05:44:10;1137.53;;;999.90;;
8550;SDS011;4313;42.000;21.380;2022-10-16T05:46:37;1164.73;;;999.90;;
8550;SDS011;4313;42.000;21.380;2022-10-16T05:49:04;1160.23;;;999.90;;
8550;SDS011;4313;42.000;21.380;2022-10-16T05:51:31;1162.27;;;999.90;;
8550;SDS011;4313;42.000;21.380;2022-10-16T05:53:58;1145.97;;;999.90;;
8550;SDS011;4313;42.000;21.380;2022-10-16T05:56:26;1176.87;;;999.90;;
8550;SDS011;4313;42.000;21.380;2022-10-16T05:58:54;1161.27;;;999.90;;
8550;SDS011;4313;42.000;21.380;2022-10-16T06:01:21;1090.87;;;984.70;;
8550;SDS011;4313;42.000;21.380;2022-10-16T06:03:49;1120.17;;;999.90;;
8550;SDS011;4313;42.000;21.380;2022-10-16T06:06:17;1151.70;;;999.90;;
8550;SDS011;4313;42.000;21.380;2022-10-16T06:08:46;1220.63;;;999.90;;
8550;SDS011;4313;42.000;21.380;2022-10-16T06:11:15;1006.25;;;919.20;;
8550;SDS011;4313;42.000;21.380;2022-10-16T06:13:44;831.58;;;762.80;;
8550;SDS011;4313;42.000;21.380;2022-10-16T06:16:12;674.25;;;626.83;;
8550;SDS011;4313;42.000;21.380;2022-10-16T06:18:40;389.80;;;200.63;;
8550;SDS011;4313;42.000;21.380;2022-10-16T06:21:07;1999.90;;;506.80;;
8550;SDS011;4313;42.000;21.380;2022-10-16T06:23:35;1999.90;;;999.90;;
8550;SDS011;4313;42.000;21.380;2022-10-16T06:26:06;1999.90;;;999.90;;
8550;SDS011;4313;42.000;21.380;2022-10-16T06:28:33;1999.90;;;999.90;;
8550;SDS011;4313;42.000;21.380;2022-10-16T06:31:02;1999.90;;;708.13;;
8550;SDS011;4313;42.000;21.380;2022-10-16T06:33:30;1999.90;;;999.90;;
8550;SDS011;4313;42.000;21.380;2022-10-16T06:36:00;1999.90;;;786.10;;
8550;SDS011;4313;42.000;21.380;2022-10-16T06:38:28;1999.90;;;999.90;;
8550;SDS011;4313;42.000;21.380;2022-10-16T06:40:55;1999.90;;;999.90;;
8550;SDS011;4313;42.000;21.380;2022-10-16T06:43:23;1999.90;;;999.90;;
8550;SDS011;4313;42.000;21.380;2022-10-16T06:45:51;1999.90;;;999.90;;
8550;SDS011;4313;42.000;21.380;2022-10-16T06:48:20;1999.90;;;999.90;;
8550;SDS011;4313;42.000;21.380;2022-10-16T06:50:57;1999.90;;;999.90;;
8550;SDS011;4313;42.000;21.380;2022-10-16T06:53:25;1999.90;;;999.90;;
8550;SDS011;4313;42.000;21.380;2022-10-16T06:55:54;1999.90;;;999.90;;
8550;SDS011;4313;42.000;21.380;2022-10-16T06:58:21;1416.75;;;747.63;;
8550;SDS011;4313;42.000;21.380;2022-10-16T07:00:48;775.85;;;592.25;;
8550;SDS011;4313;42.000;21.380;2022-10-16T07:03:15;1998.75;;;986.45;;
8550;SDS011;4313;42.000;21.380;2022-10-16T07:05:44;1999.90;;;999.90;;
8550;SDS011;4313;42.000;21.380;2022-10-16T07:08:11;1381.55;;;902.20;;
8550;SDS011;4313;42.000;21.380;2022-10-16T07:10:38;1999.32;;;999.90;;
8550;SDS011;4313;42.000;21.380;2022-10-16T07:13:05;1999.90;;;999.90;;
8550;SDS011;4313;42.000;21.380;2022-10-16T07:15:33;1999.90;;;999.90;;
8550;SDS011;4313;42.000;21.380;2022-10-16T07:18:00;1999.90;;;999.90;;
8550;SDS011;4313;42.000;21.380;2022-10-16T07:20:27;1999.90;;;999.90;;
8550;SDS011;4313;42.000;21.380;2022-10-16T07:22:56;1999.90;;;999.90;;
8550;SDS011;4313;42.000;21.380;2022-10-16T07:25:23;1999.90;;;999.90;;
8550;SDS011;4313;42.000;21.380;2022-10-16T07:27:50;1999.90;;;999.90;;
8550;SDS011;4313;42.000;21.380;2022-10-16T07:30:17;1999.90;;;999.90;;
8550;SDS011;4313;42.000;21.380;2022-10-16T07:32:44;1999.90;;;999.90;;
8550;SDS011;4313;42.000;21.380;2022-10-16T07:35:11;1999.90;;;999.90;;
8550;SDS011;4313;42.000;21.380;2022-10-16T07:37:38;1999.90;;;999.90;;
8550;SDS011;4313;42.000;21.380;2022-10-16T07:40:08;1999.90;;;999.90;;
8550;SDS011;4313;42.000;21.380;2022-10-16T07:42:35;1999.90;;;999.90;;
8550;SDS011;4313;42.000;21.380;2022-10-16T07:45:03;1999.90;;;999.90;;
8550;SDS011;4313;42.000;21.380;2022-10-16T07:47:30;1999.90;;;999.90;;
8550;SDS011;4313;42.000;21.380;2022-10-16T07:49:57;1999.90;;;999.90;;
8550;SDS011;4313;42.000;21.380;2022-10-16T07:52:25;1999.90;;;999.90;;
8550;SDS011;4313;42.000;21.380;2022-10-16T07:54:52;1999.90;;;999.90;;
8550;SDS011;4313;42.000;21.380;2022-10-16T07:57:20;1999.90;;;999.90;;
8550;SDS011;4313;42.000;21.380;2022-10-16T07:59:47;1999.90;;;999.90;;
8550;SDS011;4313;42.000;21.380;2022-10-16T08:02:14;1999.90;;;999.90;;
8550;SDS011;4313;42.000;21.380;2022-10-16T08:04:41;1999.90;;;999.90;;
8550;SDS011;4313;42.000;21.380;2022-10-16T08:07:08;1999.90;;;999.90;;
8550;SDS011;4313;42.000;21.380;2022-10-16T08:09:36;1999.90;;;999.90;;
8550;SDS011;4313;42.000;21.380;2022-10-16T08:12:03;1999.90;;;999.90;;
8550;SDS011;4313;42.000;21.380;2022-10-16T08:14:32;1999.90;;;999.90;;
8550;SDS011;4313;42.000;21.380;2022-10-16T08:16:59;1999.90;;;999.90;;
8550;SDS011;4313;42.000;21.380;2022-10-16T08:19:27;1999.90;;;999.90;;
8550;SDS011;4313;42.000;21.380;2022-10-16T08:21:55;1999.90;;;999.90;;
8550;SDS011;4313;42.000;21.380;2022-10-16T08:24:22;1999.90;;;999.90;;
8550;SDS011;4313;42.000;21.380;2022-10-16T08:26:49;1999.90;;;999.90;;
8550;SDS011;4313;42.000;21.380;2022-10-16T08:29:16;1999.90;;;999.90;;
8550;SDS011;4313;42.000;21.380;2022-10-16T08:31:45;1651.70;;;953.03;;
8550;SDS011;4313;42.000;21.380;2022-10-16T08:34:12;1987.88;;;989.47;;
8550;SDS011;4313;42.000;21.380;2022-10-16T08:36:39;1281.88;;;843.35;;
8550;SDS011;4313;42.000;21.380;2022-10-16T08:39:06;941.63;;;757.00;;
8550;SDS011;4313;42.000;21.380;2022-10-16T08:44:31;1999.90;;;999.90;;
8550;SDS011;4313;42.000;21.380;2022-10-16T08:47:08;1999.90;;;999.90;;
8550;SDS011;4313;42.000;21.380;2022-10-16T08:49:40;1999.90;;;999.90;;
8550;SDS011;4313;42.000;21.380;2022-10-16T08:52:10;1999.90;;;999.90;;
8550;SDS011;4313;42.000;21.380;2022-10-16T08:54:40;1999.90;;;999.90;;
8550;SDS011;4313;42.000;21.380;2022-10-16T08:57:09;1999.90;;;999.90;;
8550;SDS011;4313;42.000;21.380;2022-10-16T08:59:38;1999.90;;;999.90;;
8550;SDS011;4313;42.000;21.380;2022-10-16T09:02:14;1999.90;;;999.90;;
8550;SDS011;4313;42.000;21.380;2022-10-16T09:04:54;1999.90;;;999.90;;
8550;SDS011;4313;42.000;21.380;2022-10-16T09:07:39;1999.90;;;999.90;;
8550;SDS011;4313;42.000;21.380;2022-10-16T09:10:12;1999.90;;;999.90;;
8550;SDS011;4313;42.000;21.380;2022-10-16T09:12:48;1999.90;;;999.90;;
8550;SDS011;4313;42.000;21.380;2022-10-16T09:15:22;1999.90;;;999.90;;
8550;SDS011;4313;42.000;21.380;2022-10-16T09:17:54;1999.90;;;999.90;;
8550;SDS011;4313;42.000;21.380;2022-10-16T09:20:35;1999.90;;;999.90;;
8550;SDS011;4313;42.000;21.380;2022-10-16T09:23:09;1999.90;;;999.90;;
8550;SDS011;4313;42.000;21.380;2022-10-16T09:25:40;1999.90;;;999.90;;
8550;SDS011;4313;42.000;21.380;2022-10-16T09:28:09;1999.90;;;999.90;;
8550;SDS011;4313;42.000;21.380;2022-10-16T09:30:36;1999.90;;;999.90;;
8550;SDS011;4313;42.000;21.380;2022-10-16T09:33:06;1999.90;;;923.75;;
8550;SDS011;4313;42.000;21.380;2022-10-16T09:35:35;1999.90;;;999.90;;
8550;SDS011;4313;42.000;21.380;2022-10-16T09:38:03;1498.82;;;154.23;;
8550;SDS011;4313;42.000;21.380;2022-10-16T09:40:31;1999.90;;;882.78;;
8550;SDS011;4313;42.000;21.380;2022-10-16T09:43:01;1999.90;;;999.90;;
8550;SDS011;4313;42.000;21.380;2022-10-16T09:45:32;1999.90;;;494.20;;
8550;SDS011;4313;42.000;21.380;2022-10-16T09:48:01;1999.90;;;720.03;;
8550;SDS011;4313;42.000;21.380;2022-10-16T09:50:29;1999.90;;;389.67;;
8550;SDS011;4313;42.000;21.380;2022-10-16T09:53:04;1999.90;;;357.27;;
8550;SDS011;4313;42.000;21.380;2022-10-16T09:55:32;1999.90;;;999.90;;
8550;SDS011;4313;42.000;21.380;2022-10-16T09:57:59;1999.90;;;999.90;;
8550;SDS011;4313;42.000;21.380;2022-10-16T10:00:26;1999.90;;;999.90;;
8550;SDS011;4313;42.000;21.380;2022-10-16T10:02:55;1999.90;;;999.90;;
8550;SDS011;4313;42.000;21.380;2022-10-16T10:05:22;1999.90;;;999.90;;
8550;SDS011;4313;42.000;21.380;2022-10-16T10:07:56;1999.90;;;999.90;;
8550;SDS011;4313;42.000;21.380;2022-10-16T10:10:24;1999.90;;;999.90;;
8550;SDS011;4313;42.000;21.380;2022-10-16T10:12:53;1999.90;;;999.90;;
8550;SDS011;4313;42.000;21.380;2022-10-16T10:15:20;1999.90;;;999.90;;
8550;SDS011;4313;42.000;21.380;2022-10-16T10:17:49;1999.90;;;999.90;;
8550;SDS011;4313;42.000;21.380;2022-10-16T10:20:24;1999.90;;;704.13;;
8550;SDS011;4313;42.000;21.380;2022-10-16T10:22:53;1999.90;;;601.85;;
8550;SDS011;4313;42.000;21.380;2022-10-16T10:25:25;1999.90;;;663.30;;
8550;SDS011;4313;42.000;21.380;2022-10-16T10:28:10;1999.90;;;999.90;;
8550;SDS011;4313;42.000;21.380;2022-10-16T10:30:46;1999.90;;;999.90;;
8550;SDS011;4313;42.000;21.380;2022-10-16T10:33:18;1999.90;;;999.90;;
8550;SDS011;4313;42.000;21.380;2022-10-16T10:35:51;1999.90;;;999.90;;
8550;SDS011;4313;42.000;21.380;2022-10-16T10:38:29;1999.90;;;999.90;;
8550;SDS011;4313;42.000;21.380;2022-10-16T10:41:02;1999.90;;;999.90;;
8550;SDS011;4313;42.000;21.380;2022-10-16T10:43:41;1999.90;;;999.90;;
8550;SDS011;4313;42.000;21.380;2022-10-16T10:46:17;1999.90;;;999.90;;
8550;SDS011;4313;42.000;21.380;2022-10-16T10:49:13;1499.63;;;163.85;;
8550;SDS011;4313;42.000;21.380;2022-10-16T10:51:49;1999.90;;;470.08;;
8550;SDS011;4313;42.000;21.380;2022-10-16T10:54:24;1999.90;;;669.22;;
8550;SDS011;4313;42.000;21.380;2022-10-16T10:56:57;1999.90;;;995.58;;
8550;SDS011;4313;42.000;21.380;2022-10-16T10:59:36;1999.90;;;999.90;;
8550;SDS011;4313;42.000;21.380;2022-10-16T11:02:18;1999.90;;;999.90;;
8550;SDS011;4313;42.000;21.380;2022-10-16T11:04:54;1999.90;;;999.90;;
8550;SDS011;4313;42.000;21.380;2022-10-16T11:07:47;1999.90;;;999.90;;
8550;SDS011;4313;42.000;21.380;2022-10-16T11:10:18;1999.90;;;999.90;;
8550;SDS011;4313;42.000;21.380;2022-10-16T11:12:49;1999.90;;;999.90;;
8550;SDS011;4313;42.000;21.380;2022-10-16T11:15:19;1999.90;;;999.90;;
8550;SDS011;4313;42.000;21.380;2022-10-16T11:17:50;1999.90;;;999.90;;
8550;SDS011;4313;42.000;21.380;2022-10-16T11:20:20;1999.90;;;999.90;;
8550;SDS011;4313;42.000;21.380;2022-10-16T11:22:50;1999.90;;;999.90;;
8550;SDS011;4313;42.000;21.380;2022-10-16T11:25:21;1999.90;;;999.90;;
8550;SDS011;4313;42.000;21.380;2022-10-16T11:27:51;1999.90;;;999.90;;
8550;SDS011;4313;42.000;21.380;2022-10-16T11:30:22;1999.90;;;999.90;;
8550;SDS011;4313;42.000;21.380;2022-10-16T11:32:56;1999.90;;;999.90;;
8550;SDS011;4313;42.000;21.380;2022-10-16T11:35:33;1999.90;;;999.90;;
8550;SDS011;4313;42.000;21.380;2022-10-16T11:38:09;1999.90;;;999.90;;
8550;SDS011;4313;42.000;21.380;2022-10-16T11:40:43;1999.90;;;999.90;;
8550;SDS011;4313;42.000;21.380;2022-10-16T11:43:13;1999.90;;;999.90;;
8550;SDS011;4313;42.000;21.380;2022-10-16T11:45:44;1999.90;;;999.90;;
8550;SDS011;4313;42.000;21.380;2022-10-16T11:48:17;1999.90;;;948.22;;
8550;SDS011;4313;42.000;21.380;2022-10-16T11:50:50;1999.90;;;863.00;;
8550;SDS011;4313;42.000;21.380;2022-10-16T11:53:22;1850.18;;;609.20;;
8550;SDS011;4313;42.000;21.380;2022-10-16T11:55:55;1999.90;;;999.90;;
8550;SDS011;4313;42.000;21.380;2022-10-16T11:58:24;1999.90;;;999.90;;
8550;SDS011;4313;42.000;21.380;2022-10-16T12:00:56;1999.90;;;999.90;;
8550;SDS011;4313;42.000;21.380;2022-10-16T12:03:28;1999.90;;;999.90;;
8550;SDS011;4313;42.000;21.380;2022-10-16T12:06:11;1999.90;;;999.90;;
8550;SDS011;4313;42.000;21.380;2022-10-16T12:08:48;1999.90;;;999.90;;
8550;SDS011;4313;42.000;21.380;2022-10-16T12:11:30;1999.90;;;999.90;;
8550;SDS011;4313;42.000;21.380;2022-10-16T12:14:18;1999.90;;;999.90;;
8550;SDS011;4313;42.000;21.380;2022-10-16T12:16:52;1999.90;;;999.90;;
8550;SDS011;4313;42.000;21.380;2022-10-16T12:19:20;1999.90;;;717.85;;
8550;SDS011;4313;42.000;21.380;2022-10-16T12:21:48;1999.90;;;999.90;;
8550;SDS011;4313;42.000;21.380;2022-10-16T12:24:29;1999.90;;;999.90;;
8550;SDS011;4313;42.000;21.380;2022-10-16T12:27:02;1999.90;;;999.90;;
8550;SDS011;4313;42.000;21.380;2022-10-16T12:29:32;1999.90;;;999.90;;
8550;SDS011;4313;42.000;21.380;2022-10-16T12:32:02;1999.90;;;999.90;;
8550;SDS011;4313;42.000;21.380;2022-10-16T12:34:32;1999.90;;;999.90;;
8550;SDS011;4313;42.000;21.380;2022-10-16T12:37:08;1999.90;;;999.90;;
8550;SDS011;4313;42.000;21.380;2022-10-16T12:39:37;1999.90;;;999.90;;
8550;SDS011;4313;42.000;21.380;2022-10-16T12:42:19;1999.90;;;999.90;;
8550;SDS011;4313;42.000;21.380;2022-10-16T12:44:48;1999.90;;;999.90;;
8550;SDS011;4313;42.000;21.380;2022-10-16T12:47:22;1999.90;;;999.90;;
8550;SDS011;4313;42.000;21.380;2022-10-16T12:49:51;1999.90;;;999.90;;
8550;SDS011;4313;42.000;21.380;2022-10-16T12:52:26;1999.90;;;999.90;;
8550;SDS011;4313;42.000;21.380;2022-10-16T12:54:58;1999.90;;;999.90;;
8550;SDS011;4313;42.000;21.380;2022-10-16T12:57:30;1999.90;;;999.90;;
8550;SDS011;4313;42.000;21.380;2022-10-16T13:00:04;1999.90;;;999.90;;
8550;SDS011;4313;42.000;21.380;2022-10-16T13:05:42;1999.90;;;999.90;;
8550;SDS011;4313;42.000;21.380;2022-10-16T13:08:17;1999.90;;;999.90;;
8550;SDS011;4313;42.000;21.380;2022-10-16T13:10:57;1999.90;;;999.90;;
8550;SDS011;4313;42.000;21.380;2022-10-16T13:13:35;1999.90;;;999.90;;
8550;SDS011;4313;42.000;21.380;2022-10-16T13:16:13;1999.90;;;999.90;;
8550;SDS011;4313;42.000;21.380;2022-10-16T13:18:47;1999.90;;;999.90;;
8550;SDS011;4313;42.000;21.380;2022-10-16T13:21:25;1999.90;;;999.90;;
8550;SDS011;4313;42.000;21.380;2022-10-16T13:24:00;1999.90;;;999.90;;
8550;SDS011;4313;42.000;21.380;2022-10-16T13:26:31;1999.90;;;999.90;;
8550;SDS011;4313;42.000;21.380;2022-10-16T13:29:03;1999.90;;;999.90;;
8550;SDS011;4313;42.000;21.380;2022-10-16T13:31:31;1999.90;;;999.90;;
8550;SDS011;4313;42.000;21.380;2022-10-16T13:33:59;1999.90;;;999.90;;
8550;SDS011;4313;42.000;21.380;2022-10-16T13:36:27;1999.90;;;999.90;;
8550;SDS011;4313;42.000;21.380;2022-10-16T13:39:00;1999.90;;;999.90;;
8550;SDS011;4313;42.000;21.380;2022-10-16T13:41:33;1999.90;;;999.90;;
8550;SDS011;4313;42.000;21.380;2022-10-16T13:44:00;1999.90;;;999.90;;
8550;SDS011;4313;42.000;21.380;2022-10-16T13:46:29;1999.90;;;999.90;;
8550;SDS011;4313;42.000;21.380;2022-10-16T13:49:00;1999.90;;;999.90;;
8550;SDS011;4313;42.000;21.380;2022-10-16T13:51:28;1999.90;;;999.90;;
8550;SDS011;4313;42.000;21.380;2022-10-16T13:53:56;1999.90;;;999.90;;
8550;SDS011;4313;42.000;21.380;2022-10-16T13:56:27;1999.90;;;999.90;;
8550;SDS011;4313;42.000;21.380;2022-10-16T13:58:58;1999.90;;;999.90;;
8550;SDS011;4313;42.000;21.380;2022-10-16T14:01:26;1999.90;;;999.90;;
8550;SDS011;4313;42.000;21.380;2022-10-16T14:04:00;1999.90;;;999.90;;
8550;SDS011;4313;42.000;21.380;2022-10-16T14:06:29;1999.90;;;999.90;;
8550;SDS011;4313;42.000;21.380;2022-10-16T14:08:58;1999.90;;;999.90;;
8550;SDS011;4313;42.000;21.380;2022-10-16T14:11:26;1999.90;;;999.90;;
8550;SDS011;4313;42.000;21.380;2022-10-16T14:13:53;1999.90;;;999.90;;
8550;SDS011;4313;42.000;21.380;2022-10-16T14:16:21;1999.90;;;999.90;;
8550;SDS011;4313;42.000;21.380;2022-10-16T14:18:54;1999.90;;;999.90;;
8550;SDS011;4313;42.000;21.380;2022-10-16T14:21:23;1999.90;;;999.90;;